createdAt,value
2017-07-11T16:29:55.184Z,1004.71
2017-07-11T16:32:03.734Z,1004.71
2017-07-11T16:33:03.723Z,1004.7
2017-07-11T16:34:03.708Z,1004.71
2017-07-11T16:35:03.695Z,1004.71
2017-07-11T16:36:03.686Z,1004.72
2017-07-11T16:37:03.671Z,1004.74
2017-07-11T16:38:03.670Z,1004.78
2017-07-11T16:39:03.652Z,1004.78
2017-07-11T16:40:03.641Z,1004.83
2017-07-11T16:41:03.633Z,1004.81
2017-07-11T16:42:03.609Z,1004.84
2017-07-11T16:43:03.596Z,1004.79
2017-07-11T16:44:03.586Z,1004.84
2017-07-11T16:45:03.578Z,1004.82
2017-07-11T16:46:03.567Z,1004.81
2017-07-11T16:47:03.555Z,1004.78
2017-07-11T16:48:03.539Z,1004.78
2017-07-11T16:49:03.535Z,1004.84
2017-07-11T16:50:03.515Z,1004.79
2017-07-11T16:51:03.506Z,1004.8
2017-07-11T16:52:03.494Z,1004.79
2017-07-11T16:53:03.483Z,1004.83
2017-07-11T16:54:03.482Z,1004.81
2017-07-11T16:55:03.464Z,1004.8
2017-07-11T16:56:03.452Z,1004.8
2017-07-11T16:57:03.435Z,1004.81
2017-07-11T16:58:03.433Z,1004.77
2017-07-11T16:59:03.413Z,1004.77
2017-07-11T17:00:03.405Z,1004.81
2017-07-11T17:01:03.388Z,1004.79
2017-07-11T17:02:03.449Z,1004.8
2017-07-11T17:03:03.366Z,1004.79
2017-07-11T17:04:03.466Z,1004.8
2017-07-11T17:05:03.347Z,1004.8
2017-07-11T17:06:03.336Z,1004.76
2017-07-11T17:07:03.319Z,1004.8
2017-07-11T17:08:03.406Z,1004.74
2017-07-11T17:09:03.295Z,1004.79
2017-07-11T17:10:03.295Z,1004.76
2017-07-11T17:11:03.276Z,1004.74
2017-07-11T17:12:03.320Z,1004.73
2017-07-11T17:13:03.257Z,1004.72
2017-07-11T17:14:03.237Z,1004.73
2017-07-11T17:15:03.225Z,1004.74
2017-07-11T17:16:03.219Z,1004.74
2017-07-11T17:17:03.207Z,1004.75
2017-07-11T17:18:03.196Z,1004.76
2017-07-11T17:19:03.188Z,1004.79
2017-07-11T17:20:03.173Z,1004.77
2017-07-11T17:21:03.159Z,1004.78
2017-07-11T17:22:03.147Z,1004.78
2017-07-11T17:23:03.137Z,1004.77
2017-07-11T17:24:03.128Z,1004.78
2017-07-11T17:25:03.111Z,1004.8
2017-07-11T17:26:03.105Z,1004.82
2017-07-11T17:27:03.089Z,1004.8
2017-07-11T17:28:03.084Z,1004.81
2017-07-11T17:29:03.067Z,1004.81
2017-07-11T17:30:03.059Z,1004.77
2017-07-11T17:31:03.041Z,1004.81
2017-07-11T17:32:03.029Z,1004.74
2017-07-11T17:33:03.025Z,1004.76
2017-07-11T17:34:03.005Z,1004.76
2017-07-11T17:35:02.998Z,1004.76
2017-07-11T17:36:02.985Z,1004.75
2017-07-11T17:37:02.975Z,1004.73
2017-07-11T17:38:02.973Z,1004.73
2017-07-11T17:39:02.956Z,1004.74
2017-07-11T17:40:02.937Z,1004.73
2017-07-11T17:41:02.925Z,1004.75
2017-07-11T17:42:02.927Z,1004.82
2017-07-11T17:43:02.909Z,1004.83
2017-07-11T17:44:02.892Z,1004.86
2017-07-11T17:45:02.878Z,1004.85
2017-07-11T17:46:02.866Z,1004.83
2017-07-11T17:47:02.868Z,1004.83
2017-07-11T17:48:02.847Z,1004.8
2017-07-11T17:49:02.829Z,1004.83
2017-07-11T17:50:02.826Z,1004.83
2017-07-11T17:51:02.805Z,1004.83
2017-07-11T17:52:02.795Z,1004.81
2017-07-11T17:53:02.784Z,1004.83
2017-07-11T17:54:02.786Z,1004.84
2017-07-11T17:55:02.767Z,1004.81
2017-07-11T17:56:02.748Z,1004.8
2017-07-11T17:57:02.736Z,1004.8
2017-07-11T17:58:02.722Z,1004.8
2017-07-11T17:59:02.716Z,1004.79
2017-07-11T18:00:02.696Z,1004.78
2017-07-11T18:01:02.685Z,1004.76
2017-07-11T18:02:02.678Z,1004.75
2017-07-11T18:03:02.663Z,1004.75
2017-07-11T18:04:02.656Z,1004.74
2017-07-11T18:05:02.649Z,1004.75
2017-07-11T18:06:02.628Z,1004.75
2017-07-11T18:07:02.617Z,1004.78
2017-07-11T18:08:02.608Z,1004.8
2017-07-11T18:09:02.595Z,1004.78
2017-07-11T18:10:02.583Z,1004.78
2017-07-11T18:11:02.578Z,1004.81
2017-07-11T18:12:02.555Z,1004.79
2017-07-11T18:13:02.557Z,1004.82
2017-07-11T18:14:02.540Z,1004.78
2017-07-11T18:15:02.529Z,1004.79
2017-07-11T18:16:02.513Z,1004.78
2017-07-11T18:17:02.499Z,1004.75
2017-07-11T18:18:02.486Z,1004.76
2017-07-11T18:19:02.469Z,1004.74
2017-07-11T18:20:02.466Z,1004.76
2017-07-11T18:21:02.459Z,1004.78
2017-07-11T18:22:02.441Z,1004.76
2017-07-11T18:23:02.423Z,1004.77
2017-07-11T18:24:02.419Z,1004.77
2017-07-11T18:25:02.407Z,1004.78
2017-07-11T18:26:02.386Z,1004.8
2017-07-11T18:27:02.387Z,1004.82
2017-07-11T18:28:02.365Z,1004.85
2017-07-11T18:29:02.353Z,1004.86
2017-07-11T18:30:02.349Z,1004.88
2017-07-11T18:31:02.338Z,1004.85
2017-07-11T18:32:02.322Z,1004.89
2017-07-11T18:33:02.301Z,1004.88
2017-07-11T18:34:02.297Z,1004.85
2017-07-11T18:35:02.286Z,1004.91
2017-07-11T18:36:02.265Z,1004.9
2017-07-11T18:37:02.261Z,1004.88
2017-07-11T18:38:02.244Z,1004.85
2017-07-11T18:39:02.243Z,1004.9
2017-07-11T18:40:02.217Z,1004.84
2017-07-11T18:41:02.206Z,1004.84
2017-07-11T18:42:02.196Z,1004.87
2017-07-11T18:43:02.184Z,1004.85
2017-07-11T18:44:02.164Z,1004.86
2017-07-11T18:45:02.156Z,1004.84
2017-07-11T18:46:02.146Z,1004.86
2017-07-11T18:47:02.127Z,1004.88
2017-07-11T18:48:02.118Z,1004.9
2017-07-11T18:49:02.106Z,1004.9
2017-07-11T18:50:02.096Z,1004.9
2017-07-11T18:51:02.082Z,1004.89
2017-07-11T18:52:02.076Z,1004.9
2017-07-11T18:53:02.057Z,1004.91
2017-07-11T18:54:02.048Z,1004.91
2017-07-11T18:55:02.037Z,1004.91
2017-07-11T18:56:02.018Z,1004.93
2017-07-11T18:57:02.013Z,1004.89
2017-07-11T18:58:02.002Z,1004.91
2017-07-11T18:59:01.979Z,1004.88
2017-07-11T19:00:01.976Z,1004.94
2017-07-11T19:01:01.965Z,1004.93
2017-07-11T19:02:01.955Z,1004.88
2017-07-11T19:03:01.933Z,1004.89
2017-07-11T19:04:01.926Z,1004.9
2017-07-11T19:05:01.906Z,1004.91
2017-07-11T19:06:01.918Z,1004.9
2017-07-11T19:07:01.887Z,1004.89
2017-07-11T19:08:01.878Z,1004.91
2017-07-11T19:09:01.859Z,1004.89
2017-07-11T19:10:01.848Z,1004.88
2017-07-11T19:11:01.848Z,1004.89
2017-07-11T19:12:01.825Z,1004.87
2017-07-11T19:13:01.815Z,1004.89
2017-07-11T19:14:01.796Z,1004.87
2017-07-11T19:15:01.779Z,1004.85
2017-07-11T19:16:01.770Z,1004.85
2017-07-11T19:17:01.756Z,1004.87
2017-07-11T19:18:01.848Z,1004.87
2017-07-11T19:19:01.732Z,1004.86
2017-07-11T19:20:01.826Z,1004.88
2017-07-11T19:21:01.702Z,1004.85
2017-07-11T19:22:01.748Z,1004.86
2017-07-11T19:23:01.677Z,1004.87
2017-07-11T19:24:01.668Z,1004.89
2017-07-11T19:25:01.660Z,1004.91
2017-07-11T19:26:01.689Z,1004.88
2017-07-11T19:27:01.626Z,1004.86
2017-07-11T19:28:01.616Z,1004.84
2017-07-11T19:29:01.601Z,1004.8
2017-07-11T19:30:01.586Z,1004.79
2017-07-11T19:31:01.595Z,1004.8
2017-07-11T19:32:01.560Z,1004.81
2017-07-11T19:33:01.550Z,1004.78
2017-07-11T19:34:01.541Z,1004.81
2017-07-11T19:35:01.527Z,1004.82
2017-07-11T19:36:01.516Z,1004.8
2017-07-11T19:37:01.496Z,1004.83
2017-07-11T19:38:01.488Z,1004.8
2017-07-11T19:39:01.476Z,1004.83
2017-07-11T19:40:01.467Z,1004.84
2017-07-11T19:41:01.449Z,1004.85
2017-07-11T19:42:01.490Z,1004.85
2017-07-11T19:43:01.431Z,1004.87
2017-07-11T19:44:01.418Z,1004.89
2017-07-11T19:45:01.395Z,1004.94
2017-07-11T19:46:01.386Z,1004.94
2017-07-11T19:47:01.367Z,1004.93
2017-07-11T19:48:01.359Z,1004.94
2017-07-11T19:49:01.347Z,1004.91
2017-07-11T19:50:01.331Z,1004.96
2017-07-11T19:51:01.319Z,1004.92
2017-07-11T19:52:01.303Z,1004.94
2017-07-11T19:53:01.289Z,1004.95
2017-07-11T19:54:01.271Z,1004.96
2017-07-11T19:55:01.268Z,1004.92
2017-07-11T19:56:01.273Z,1004.91
2017-07-11T19:57:01.241Z,1004.89
2017-07-11T19:58:01.217Z,1004.88
2017-07-11T19:59:01.205Z,1004.87
2017-07-11T20:00:01.193Z,1004.91
2017-07-11T20:01:01.179Z,1004.91
2017-07-11T20:02:01.172Z,1004.92
2017-07-11T20:03:01.158Z,1004.96
2017-07-11T20:04:01.139Z,1004.96
2017-07-11T20:05:01.128Z,1004.99
2017-07-11T20:06:01.108Z,1004.96
2017-07-11T20:07:01.097Z,1004.93
2017-07-11T20:08:01.088Z,1004.86
2017-07-11T20:09:01.069Z,1004.83
2017-07-11T20:10:01.059Z,1004.85
2017-07-11T20:11:01.046Z,1004.83
2017-07-11T20:12:01.027Z,1004.89
2017-07-11T20:13:01.015Z,1004.91
2017-07-11T20:14:01.006Z,1004.87
2017-07-11T20:15:00.989Z,1004.9
2017-07-11T20:16:00.981Z,1004.87
2017-07-11T20:17:00.962Z,1004.87
2017-07-11T20:18:00.948Z,1004.86
2017-07-11T20:19:00.938Z,1004.85
2017-07-11T20:20:00.920Z,1004.84
2017-07-11T20:21:00.909Z,1004.87
2017-07-11T20:22:00.899Z,1004.85
2017-07-11T20:23:00.888Z,1004.86
2017-07-11T20:24:00.867Z,1004.88
2017-07-11T20:25:00.848Z,1004.89
2017-07-11T20:26:00.836Z,1004.88
2017-07-11T20:27:00.835Z,1004.88
2017-07-11T20:28:00.814Z,1004.93
2017-07-11T20:29:00.800Z,1004.92
2017-07-11T20:30:00.790Z,1004.94
2017-07-11T20:31:00.774Z,1004.95
2017-07-11T20:32:00.756Z,1004.98
2017-07-11T20:33:00.740Z,1004.99
2017-07-11T20:34:00.730Z,1005
2017-07-11T20:35:00.718Z,1004.98
2017-07-11T20:36:00.709Z,1005
2017-07-11T20:37:00.687Z,1004.97
2017-07-11T20:38:00.679Z,1005.01
2017-07-11T20:39:00.658Z,1004.99
2017-07-11T20:40:00.650Z,1004.98
2017-07-11T20:41:00.626Z,1004.99
2017-07-11T20:42:00.618Z,1004.99
2017-07-11T20:43:00.602Z,1004.99
2017-07-11T20:44:00.590Z,1004.99
2017-07-11T20:45:00.574Z,1005
2017-07-11T20:46:00.562Z,1005
2017-07-11T20:47:00.545Z,1004.98
2017-07-11T20:48:00.539Z,1004.97
2017-07-11T20:49:00.521Z,1005
2017-07-11T20:50:00.509Z,1005
2017-07-11T20:51:00.489Z,1005
2017-07-11T20:52:00.479Z,1005.01
2017-07-11T20:53:00.463Z,1005.02
2017-07-11T20:54:00.450Z,1005.01
2017-07-11T20:55:00.440Z,1004.98
2017-07-11T20:56:00.439Z,1004.97
2017-07-11T20:57:00.408Z,1004.97
2017-07-11T20:58:00.393Z,1004.95
2017-07-11T20:59:00.383Z,1004.95
2017-07-11T21:00:00.367Z,1004.98
2017-07-11T21:01:00.350Z,1004.95
2017-07-11T21:02:00.334Z,1004.98
2017-07-11T21:03:00.321Z,1004.94
2017-07-11T21:04:00.303Z,1004.94
2017-07-11T21:05:00.292Z,1004.92
2017-07-11T21:06:00.280Z,1004.87
2017-07-11T21:07:00.264Z,1004.91
2017-07-11T21:08:00.250Z,1004.9
2017-07-11T21:09:00.249Z,1004.89
2017-07-11T21:10:00.220Z,1004.9
2017-07-11T21:11:00.219Z,1004.88
2017-07-11T21:12:00.195Z,1004.85
2017-07-11T21:13:00.188Z,1004.88
2017-07-11T21:14:00.165Z,1004.87
2017-07-11T21:15:00.150Z,1004.89
2017-07-11T21:16:00.143Z,1004.89
2017-07-11T21:17:00.121Z,1004.85
2017-07-11T21:18:00.124Z,1004.9
2017-07-11T21:19:00.100Z,1004.89
2017-07-11T21:20:00.085Z,1004.88
2017-07-11T21:21:00.067Z,1004.86
2017-07-11T21:22:00.052Z,1004.89
2017-07-11T21:23:00.039Z,1004.86
2017-07-11T21:24:00.029Z,1004.88
2017-07-11T21:25:00.016Z,1004.86
2017-07-11T21:26:00.000Z,1004.87
2017-07-11T21:26:59.990Z,1004.87
2017-07-11T21:27:59.974Z,1004.85
2017-07-11T21:28:59.962Z,1004.87
2017-07-11T21:29:59.942Z,1004.89
2017-07-11T21:30:59.931Z,1004.81
2017-07-11T21:31:59.917Z,1004.82
2017-07-11T21:32:59.900Z,1004.83
2017-07-11T21:33:59.900Z,1004.86
2017-07-11T21:34:59.871Z,1004.85
2017-07-11T21:35:59.865Z,1004.87
2017-07-11T21:36:59.852Z,1004.9
2017-07-11T21:37:59.825Z,1004.88
2017-07-11T21:38:59.813Z,1004.92
2017-07-11T21:39:59.801Z,1004.88
2017-07-11T21:40:59.785Z,1004.88
2017-07-11T21:41:59.780Z,1004.86
2017-07-11T21:42:59.758Z,1004.84
2017-07-11T21:43:59.744Z,1004.8
2017-07-11T21:44:59.739Z,1004.84
2017-07-11T21:45:59.718Z,1004.81
2017-07-11T21:46:59.700Z,1004.82
2017-07-11T21:47:59.684Z,1004.81
2017-07-11T21:48:59.675Z,1004.84
2017-07-11T21:49:59.658Z,1004.82
2017-07-11T21:50:59.643Z,1004.8
2017-07-11T21:51:59.632Z,1004.83
2017-07-11T21:52:59.619Z,1004.86
2017-07-11T21:53:59.600Z,1004.86
2017-07-11T21:54:59.590Z,1004.86
2017-07-11T21:55:59.571Z,1004.84
2017-07-11T21:56:59.558Z,1004.83
2017-07-11T21:57:59.539Z,1004.88
2017-07-11T21:58:59.528Z,1004.84
2017-07-11T21:59:59.520Z,1004.84
2017-07-11T22:00:59.501Z,1004.83
2017-07-11T22:01:59.563Z,1004.76
2017-07-11T22:02:59.470Z,1004.77
2017-07-11T22:03:59.460Z,1004.85
2017-07-11T22:04:59.441Z,1004.8
2017-07-11T22:05:59.430Z,1004.81
2017-07-11T22:06:59.409Z,1004.79
2017-07-11T22:07:59.410Z,1004.83
2017-07-11T22:08:59.377Z,1004.83
2017-07-11T22:09:59.362Z,1004.84
2017-07-11T22:10:59.351Z,1004.86
2017-07-11T22:11:59.340Z,1004.87
2017-07-11T22:12:59.320Z,1004.85
2017-07-11T22:13:59.311Z,1004.83
2017-07-11T22:14:59.291Z,1004.82
2017-07-11T22:15:59.275Z,1004.78
2017-07-11T22:16:59.261Z,1004.77
2017-07-11T22:17:59.251Z,1004.79
2017-07-11T22:18:59.227Z,1004.76
2017-07-11T22:19:59.218Z,1004.76
2017-07-11T22:20:59.198Z,1004.76
2017-07-11T22:21:59.189Z,1004.72
2017-07-11T22:22:59.173Z,1004.67
2017-07-11T22:23:59.162Z,1004.67
2017-07-11T22:24:59.146Z,1004.66
2017-07-11T22:25:59.129Z,1004.62
2017-07-11T22:26:59.182Z,1004.6
2017-07-11T22:27:59.099Z,1004.56
2017-07-11T22:28:59.091Z,1004.54
2017-07-11T22:29:59.072Z,1004.52
2017-07-11T22:30:59.060Z,1004.52
2017-07-11T22:31:59.039Z,1004.53
2017-07-11T22:32:59.033Z,1004.53
2017-07-11T22:33:59.005Z,1004.53
2017-07-11T22:34:59.000Z,1004.55
2017-07-11T22:35:58.978Z,1004.54
2017-07-11T22:36:58.970Z,1004.54
2017-07-11T22:37:58.953Z,1004.53
2017-07-11T22:38:58.934Z,1004.54
2017-07-11T22:39:58.925Z,1004.55
2017-07-11T22:40:58.912Z,1004.55
2017-07-11T22:41:58.893Z,1004.52
2017-07-11T22:42:58.881Z,1004.48
2017-07-11T22:43:58.861Z,1004.5
2017-07-11T22:44:58.852Z,1004.5
2017-07-11T22:45:58.843Z,1004.48
2017-07-11T22:46:58.822Z,1004.49
2017-07-11T22:47:58.808Z,1004.5
2017-07-11T22:48:58.791Z,1004.5
2017-07-11T22:49:58.777Z,1004.53
2017-07-11T22:50:58.761Z,1004.53
2017-07-11T22:51:58.743Z,1004.51
2017-07-11T22:52:58.730Z,1004.52
2017-07-11T22:53:58.721Z,1004.47
2017-07-11T22:54:58.704Z,1004.46
2017-07-11T22:55:58.694Z,1004.44
2017-07-11T22:56:58.670Z,1004.48
2017-07-11T22:57:58.661Z,1004.41
2017-07-11T22:58:58.641Z,1004.4
2017-07-11T22:59:58.630Z,1004.36
2017-07-11T23:00:58.610Z,1004.32
2017-07-11T23:01:58.603Z,1004.29
2017-07-11T23:02:58.600Z,1004.29
2017-07-11T23:03:58.568Z,1004.26
2017-07-11T23:04:58.560Z,1004.21
2017-07-11T23:05:58.546Z,1004.22
2017-07-11T23:06:58.524Z,1004.21
2017-07-11T23:07:58.507Z,1004.16
2017-07-11T23:08:58.495Z,1004.23
2017-07-11T23:09:58.481Z,1004.18
2017-07-11T23:10:58.461Z,1004.22
2017-07-11T23:11:58.453Z,1004.2
2017-07-11T23:12:58.439Z,1004.2
2017-07-11T23:13:58.419Z,1004.2
2017-07-11T23:14:58.403Z,1004.23
2017-07-11T23:15:58.389Z,1004.19
2017-07-11T23:16:58.376Z,1004.2
2017-07-11T23:17:58.358Z,1004.21
2017-07-11T23:18:58.343Z,1004.22
2017-07-11T23:19:58.330Z,1004.16
2017-07-11T23:20:58.314Z,1004.2
2017-07-11T23:21:58.302Z,1004.23
2017-07-11T23:22:58.284Z,1004.19
2017-07-11T23:23:58.270Z,1004.17
2017-07-11T23:24:58.256Z,1004.26
2017-07-11T23:25:58.238Z,1004.22
2017-07-11T23:26:58.227Z,1004.21
2017-07-11T23:27:58.211Z,1004.22
2017-07-11T23:28:58.193Z,1004.23
2017-07-11T23:29:58.179Z,1004.17
2017-07-11T23:30:58.169Z,1004.19
2017-07-11T23:31:58.160Z,1004.22
2017-07-11T23:32:58.140Z,1004.21
2017-07-11T23:33:58.128Z,1004.25
2017-07-11T23:34:58.110Z,1004.23
2017-07-11T23:35:58.099Z,1004.2
2017-07-11T23:36:58.079Z,1004.19
2017-07-11T23:37:58.068Z,1004.17
2017-07-11T23:38:58.049Z,1004.2
2017-07-11T23:39:58.033Z,1004.22
2017-07-11T23:40:58.021Z,1004.18
2017-07-11T23:41:58.005Z,1004.15
2017-07-11T23:42:57.988Z,1004.13
2017-07-11T23:43:57.973Z,1004.15
2017-07-11T23:44:57.960Z,1004.15
2017-07-11T23:45:57.951Z,1004.14
2017-07-11T23:46:57.941Z,1004.09
2017-07-11T23:47:57.917Z,1004.05
2017-07-11T23:48:57.911Z,1004.08
2017-07-11T23:49:57.889Z,1004.04
2017-07-11T23:50:57.877Z,1004.07
2017-07-11T23:51:57.859Z,1004.09
2017-07-11T23:52:57.850Z,1004.03
2017-07-11T23:53:57.833Z,1004.02
2017-07-11T23:54:57.817Z,1003.98
2017-07-11T23:55:57.799Z,1004
2017-07-11T23:56:57.788Z,1004.04
2017-07-11T23:57:57.778Z,1003.96
2017-07-11T23:58:57.757Z,1003.96
2017-07-11T23:59:57.754Z,1003.94
